Time;durP1;ratioP1;P1;durP2;ratioP2;P2;SDS_P1;SDS_P2;PMS_P1;PMS_P2;Temp;Humidity;BMP_temperature;BMP_pressure;BME280_temperature;BME280_humidity;BME280_pressure;Samples;Min_cycle;Max_cycle;Signal;HPM_P1;HPM_P2
2022/01/17 00:01:30;;;;;;;6.63;3.33;;;;;;;-1.71;100.00;99820.51;1697780;83;20996;-69
2022/01/17 00:03:59;;;;;;;10.50;3.80;;;;;;;-1.74;100.00;99815.39;1726024;83;21019;-68
2022/01/17 00:06:26;;;;;;;8.87;3.77;;;;;;;-1.75;100.00;99813.70;1731850;83;21050;-69
2022/01/17 00:08:55;;;;;;;7.97;3.80;;;;;;;-1.76;100.00;99827.41;1707914;83;21040;-68
2022/01/17 00:11:22;;;;;;;6.53;3.57;;;;;;;-1.74;100.00;99824.67;1724344;83;21070;-69
2022/01/17 00:13:49;;;;;;;8.27;4.00;;;;;;;-1.75;100.00;99821.17;1732436;83;21616;-69
2022/01/17 00:16:32;;;;;;;8.97;4.00;;;;;;;-1.74;100.00;99821.53;1716626;82;21547;-69
2022/01/17 00:21:17;;;;;;;9.87;4.00;;;;;;;-1.73;100.00;99820.59;1732971;82;21109;-68
2022/01/17 00:23:44;;;;;;;6.93;3.57;;;;;;;-1.74;100.00;99818.89;1716643;83;21547;-69
2022/01/17 00:26:11;;;;;;;7.93;3.70;;;;;;;-1.76;100.00;99814.64;1732258;83;21074;-68
2022/01/17 00:28:38;;;;;;;8.80;4.00;;;;;;;-1.77;100.00;99811.61;1732628;83;21007;-69
2022/01/17 00:31:05;;;;;;;8.30;4.20;;;;;;;-1.81;100.00;99808.30;1716668;84;20972;-69
2022/01/17 00:33:34;;;;;;;8.63;3.50;;;;;;;-1.82;100.00;99806.61;1732449;83;21099;-69
2022/01/17 00:36:01;;;;;;;9.07;4.00;;;;;;;-1.83;100.00;99804.90;1716493;83;21040;-69
2022/01/17 00:38:28;;;;;;;9.07;4.13;;;;;;;-1.83;100.00;99802.25;1732539;82;21072;-67
2022/01/17 00:40:55;;;;;;;9.23;4.30;;;;;;;-1.82;100.00;99799.98;1732503;83;21072;-68
2022/01/17 00:43:22;;;;;;;7.23;4.00;;;;;;;-1.83;100.00;99799.59;1716734;83;21046;-70
2022/01/17 00:45:49;;;;;;;8.43;4.00;;;;;;;-1.83;100.00;99790.80;1716523;83;21083;-69
2022/01/17 00:48:16;;;;;;;6.93;4.03;;;;;;;-1.84;100.00;99793.06;1716675;84;21103;-69
2022/01/17 00:50:44;;;;;;;9.20;3.87;;;;;;;-1.85;100.00;99794.87;1716641;84;21462;-68
2022/01/17 00:53:11;;;;;;;8.17;3.87;;;;;;;-1.87;100.00;99795.45;1732626;83;20975;-69
2022/01/17 00:55:38;;;;;;;7.93;3.93;;;;;;;-1.85;100.00;99792.23;1732696;82;20967;-69
2022/01/17 00:58:06;;;;;;;7.27;3.63;;;;;;;-1.83;100.00;99794.78;1716417;84;21066;-70
2022/01/17 01:00:33;;;;;;;11.23;4.07;;;;;;;-1.84;100.00;99794.39;1732096;83;21390;-69
2022/01/17 01:03:00;;;;;;;7.13;3.80;;;;;;;-1.84;100.00;99797.05;1724325;83;21449;-68
2022/01/17 01:05:27;;;;;;;7.53;3.73;;;;;;;-1.84;100.00;99792.62;1720902;83;21498;-69
2022/01/17 01:07:54;;;;;;;8.43;3.90;;;;;;;-1.82;100.00;99795.17;1720494;83;21115;-68
2022/01/17 01:10:22;;;;;;;10.47;4.20;;;;;;;-1.82;100.00;99791.20;1720789;83;21515;-69
2022/01/17 01:12:50;;;;;;;11.77;4.83;;;;;;;-1.83;100.00;99793.45;1735059;82;21071;-68
2022/01/17 01:15:46;;;;;;;9.50;4.73;;;;;;;-1.81;100.00;99797.70;1744917;82;21111;-69
2022/01/17 01:18:13;;;;;;;13.43;6.10;;;;;;;-1.84;100.00;99798.37;1745968;81;21087;-68
2022/01/17 01:28:34;;;;;;;22.90;8.00;;;;;;;-1.91;100.00;99782.03;1768155;80;21066;-67
2022/01/17 01:31:04;;;;;;;17.10;7.00;;;;;;;-1.90;100.00;99778.41;1767936;80;21078;-69
2022/01/17 01:33:37;;;;;;;17.10;7.17;;;;;;;-1.91;100.00;99771.43;1745251;80;21086;-69
2022/01/17 01:36:08;;;;;;;16.47;7.00;;;;;;;-1.93;100.00;99760.05;1748063;81;21016;-68
2022/01/17 01:38:31;;;;;;;20.67;8.10;;;;;;;-1.95;100.00;99765.48;1748730;80;20981;-68
2022/01/17 01:40:59;;;;;;;16.57;7.30;;;;;;;-1.96;100.00;99757.14;1745088;82;21079;-68
2022/01/17 01:43:26;;;;;;;19.13;8.63;;;;;;;-1.96;100.00;99755.81;1745071;82;21019;-69
2022/01/17 01:46:00;;;;;;;20.40;8.67;;;;;;;-2.00;100.00;99741.06;1766955;81;21087;-69
2022/01/17 01:48:26;;;;;;;21.77;8.83;;;;;;;-2.03;100.00;99743.91;1741454;81;21639;-70
2022/01/17 01:50:54;;;;;;;19.70;8.57;;;;;;;-2.03;100.00;99733.31;1745016;82;21067;-70
2022/01/17 01:53:25;;;;;;;18.77;7.90;;;;;;;-2.05;100.00;99734.34;1745110;82;21052;-68
2022/01/17 01:55:56;;;;;;;19.52;8.88;;;;;;;-2.08;100.00;99726.13;1767646;81;20997;-69
2022/01/17 01:58:24;;;;;;;19.93;8.97;;;;;;;-2.08;100.00;99721.31;1745248;82;21024;-68
2022/01/17 02:00:51;;;;;;;20.53;8.57;;;;;;;-2.09;100.00;99728.39;1768221;81;21027;-68
2022/01/17 02:03:19;;;;;;;18.97;9.07;;;;;;;-2.09;100.00;99712.48;1772374;80;21035;-68
2022/01/17 02:05:46;;;;;;;20.63;9.07;;;;;;;-2.07;100.00;99716.37;1742411;82;20988;-69
2022/01/17 02:08:14;;;;;;;18.80;8.90;;;;;;;-2.07;100.00;99715.91;1742060;82;21071;-69
2022/01/17 02:10:42;;;;;;;20.83;9.97;;;;;;;-2.09;100.00;99713.81;1707718;82;21084;-68
2022/01/17 02:13:10;;;;;;;20.53;9.47;;;;;;;-2.07;100.00;99709.74;1736968;82;21549;-68
2022/01/17 02:15:39;;;;;;;18.93;10.10;;;;;;;-2.08;100.00;99712.88;1702882;83;21047;-68
2022/01/17 02:18:08;;;;;;;23.30;10.63;;;;;;;-2.09;100.00;99715.14;1741054;81;21036;-68
2022/01/17 02:20:43;;;;;;;20.10;10.40;;;;;;;-2.07;100.00;99702.67;1734961;83;21048;-69
2022/01/17 02:23:04;;;;;;;20.80;10.53;;;;;;;-2.07;100.00;99693.84;1716397;83;21048;-68
2022/01/17 02:25:31;;;;;;;17.80;9.27;;;;;;;-2.08;100.00;99690.36;1735013;82;21036;-68
2022/01/17 02:27:59;;;;;;;19.87;9.70;;;;;;;-2.11;100.00;99695.84;1702866;83;21032;-69
2022/01/17 02:30:27;;;;;;;15.70;8.10;;;;;;;-2.11;100.00;99696.72;1735174;82;21080;-69
2022/01/17 02:32:54;;;;;;;15.07;8.13;;;;;;;-2.08;100.00;99698.79;1734992;83;21005;-70
2022/01/17 02:35:23;;;;;;;16.27;7.63;;;;;;;-2.12;100.00;99689.70;1735030;83;21043;-68
2022/01/17 02:37:49;;;;;;;14.37;6.27;;;;;;;-2.13;100.00;99691.97;1735212;83;21032;-68
2022/01/17 02:40:17;;;;;;;14.23;6.17;;;;;;;-2.15;100.00;99679.30;1703163;83;21020;-69
2022/01/17 02:42:46;;;;;;;13.30;6.47;;;;;;;-2.14;100.00;99685.47;1702926;83;21072;-69
2022/01/17 02:47:53;;;;;;;12.47;5.07;;;;;;;-2.19;100.00;99688.41;1605236;89;21178;-69
2022/01/17 02:50:20;;;;;;;9.83;5.00;;;;;;;-2.23;100.00;99675.44;1612305;88;21124;-67
2022/01/17 02:52:47;;;;;;;9.97;5.47;;;;;;;-2.27;100.00;99676.59;1611742;88;21104;-70
2022/01/17 02:55:14;;;;;;;9.13;5.00;;;;;;;-2.27;100.00;99676.59;1590904;89;21106;-70
2022/01/17 02:57:41;;;;;;;10.77;5.00;;;;;;;-2.31;100.00;99679.92;1591057;89;21056;-70
2022/01/17 03:00:12;;;;;;;10.17;5.20;;;;;;;-2.34;100.00;99675.68;1591272;89;21088;-69
2022/01/17 03:02:39;;;;;;;10.33;5.27;;;;;;;-2.36;100.00;99676.70;1590644;89;21075;-69
2022/01/17 03:05:10;;;;;;;11.83;5.37;;;;;;;-2.38;100.00;99677.28;1589939;89;21023;-69
2022/01/17 03:07:37;;;;;;;13.70;5.50;;;;;;;-2.40;100.00;99664.14;1590431;89;21032;-68
2022/01/17 03:10:11;;;;;;;12.47;5.87;;;;;;;-2.43;100.00;99661.67;1591341;89;21655;-69
2022/01/17 03:12:36;;;;;;;12.23;6.00;;;;;;;-2.46;100.00;99655.28;1576994;89;21067;-69
2022/01/17 03:15:05;;;;;;;10.17;5.20;;;;;;;-2.49;100.00;99663.41;1603542;89;21086;-69
2022/01/17 03:17:32;;;;;;;10.93;5.20;;;;;;;-2.52;100.00;99658.30;1603620;89;21047;-68
2022/01/17 03:19:59;;;;;;;11.00;5.17;;;;;;;-2.54;100.00;99662.36;1582730;89;21051;-68
2022/01/17 03:22:26;;;;;;;10.67;5.00;;;;;;;-2.56;100.00;99656.80;1562338;89;21207;-69
2022/01/17 03:24:56;;;;;;;12.57;5.57;;;;;;;-2.62;100.00;99654.07;1618099;86;21620;-68
2022/01/17 03:27:23;;;;;;;8.93;5.23;;;;;;;-2.65;100.00;99652.09;1661198;86;21017;-69
2022/01/17 03:29:50;;;;;;;10.33;5.50;;;;;;;-2.73;100.00;99656.04;1678933;85;21113;-68
2022/01/17 03:32:17;;;;;;;12.17;5.13;;;;;;;-2.76;100.00;99660.67;1650463;87;21038;-69
2022/01/17 03:34:44;;;;;;;11.23;4.97;;;;;;;-2.81;100.00;99658.34;1628422;87;21054;-67
2022/01/17 03:37:11;;;;;;;11.20;5.30;;;;;;;-2.83;100.00;99648.77;1628155;87;21055;-69
2022/01/17 03:39:39;;;;;;;10.90;5.30;;;;;;;-2.86;100.00;99643.22;1650457;86;21120;-69
2022/01/17 03:42:06;;;;;;;7.90;4.57;;;;;;;-2.88;100.00;99638.50;1628378;87;21059;-66
2022/01/17 03:44:33;;;;;;;9.70;4.77;;;;;;;-2.90;100.00;99635.94;1628598;87;21063;-68
2022/01/17 03:47:00;;;;;;;11.13;4.67;;;;;;;-2.90;100.00;99637.75;1607429;87;21054;-68
2022/01/17 03:49:27;;;;;;;10.57;4.73;;;;;;;-2.91;100.00;99628.94;1650585;86;21102;-69
2022/01/17 03:51:54;;;;;;;8.90;4.53;;;;;;;-2.92;100.00;99619.77;1628369;87;21579;-68
2022/01/17 03:54:21;;;;;;;9.73;5.20;;;;;;;-2.94;100.00;99612.41;1627993;86;21046;-68
2022/01/17 03:56:48;;;;;;;10.97;5.43;;;;;;;-2.97;100.00;99612.14;1655906;85;21030;-68
2022/01/17 03:59:16;;;;;;;12.93;5.30;;;;;;;-2.99;100.00;99613.16;1628071;87;20999;-69
2022/01/17 04:01:43;;;;;;;10.60;5.20;;;;;;;-3.01;100.00;99606.67;1652104;86;21090;-68
2022/01/17 04:04:11;;;;;;;9.57;5.23;;;;;;;-3.03;100.00;99606.38;1735921;83;21068;-69
2022/01/17 04:06:38;;;;;;;10.13;5.17;;;;;;;-3.06;100.00;99598.16;1731688;82;21081;-68
2022/01/17 04:09:05;;;;;;;11.53;5.63;;;;;;;-3.10;100.00;99605.89;1659788;86;21161;-69
2022/01/17 04:11:32;;;;;;;13.60;5.70;;;;;;;-3.12;100.00;99599.85;1693181;84;21053;-69
2022/01/17 04:13:59;;;;;;;11.13;5.37;;;;;;;-3.15;100.00;99596.06;1678420;84;21508;-69
2022/01/17 04:16:26;;;;;;;11.00;5.47;;;;;;;-3.16;100.00;99593.06;1650261;86;21568;-68
2022/01/17 04:18:54;;;;;;;11.33;5.97;;;;;;;-3.19;100.00;99591.44;1695165;84;21071;-68
2022/01/17 04:21:21;;;;;;;10.90;5.00;;;;;;;-3.18;100.00;99589.19;1650167;87;21481;-68
2022/01/17 04:23:48;;;;;;;10.00;5.37;;;;;;;-3.17;100.00;99588.70;1724789;83;21087;-68
2022/01/17 04:26:15;;;;;;;11.73;5.60;;;;;;;-3.19;100.00;99587.95;1662863;86;21130;-68
2022/01/17 04:28:42;;;;;;;11.90;5.70;;;;;;;-3.21;100.00;99583.23;1724980;83;21031;-68
2022/01/17 04:31:09;;;;;;;11.90;5.40;;;;;;;-3.27;100.00;99576.05;1649976;87;21091;-69
2022/01/17 04:33:36;;;;;;;11.67;5.40;;;;;;;-3.30;100.00;99570.11;1694939;84;21086;-68
2022/01/17 04:36:06;;;;;;;13.40;6.00;;;;;;;-3.34;100.00;99559.36;1685456;84;21074;-67
2022/01/17 04:38:33;;;;;;;10.07;5.90;;;;;;;-3.41;100.00;99565.48;1700376;84;21539;-68
2022/01/17 04:41:03;;;;;;;11.70;6.00;;;;;;;-3.45;100.00;99550.77;1649644;87;21075;-68
2022/01/17 04:46:07;;;;;;;12.40;5.57;;;;;;;-3.54;100.00;99559.23;1649836;87;21083;-68
2022/01/17 04:48:35;;;;;;;12.67;5.87;;;;;;;-3.58;100.00;99544.03;1695305;85;21105;-67
2022/01/17 04:51:02;;;;;;;14.23;6.40;;;;;;;-3.62;100.00;99538.08;1662781;86;21063;-69
2022/01/17 04:53:29;;;;;;;12.27;5.80;;;;;;;-3.64;100.00;99537.81;1700732;84;21016;-70
2022/01/17 04:55:56;;;;;;;13.70;6.10;;;;;;;-3.68;100.00;99529.70;1686061;84;21075;-68
2022/01/17 04:58:23;;;;;;;11.20;6.10;;;;;;;-3.69;100.00;99529.31;1695254;85;21035;-70
2022/01/17 05:00:50;;;;;;;12.63;5.77;;;;;;;-3.73;100.00;99527.80;1685859;85;21091;-69
2022/01/17 05:03:22;;;;;;;12.93;6.40;;;;;;;-3.76;100.00;99511.66;1684431;85;21045;-70
2022/01/17 05:05:49;;;;;;;12.97;6.30;;;;;;;-3.77;100.00;99504.69;1672407;84;21046;-70
2022/01/17 05:08:16;;;;;;;12.77;6.00;;;;;;;-3.79;100.00;99491.17;1681475;85;20994;-70
2022/01/17 05:10:51;;;;;;;10.90;6.20;;;;;;;-3.82;100.00;99490.42;1670397;85;21102;-68
2022/01/17 05:13:20;;;;;;;12.97;6.40;;;;;;;-3.84;100.00;99471.18;1667683;84;21043;-68
2022/01/17 05:16:04;;;;;;;12.97;6.03;;;;;;;-3.85;100.00;99465.50;1669352;85;21126;-69
2022/01/17 05:19:48;;;;;;;12.73;6.00;;;;;;;-3.85;100.00;99458.06;1669967;85;20988;-68
2022/01/17 05:20:54;;;;;;;13.00;6.17;;;;;;;-3.87;100.00;99452.02;1681641;85;21042;-69
2022/01/17 05:23:21;;;;;;;12.83;5.90;;;;;;;-3.89;100.00;99447.31;1650778;85;21055;-68
2022/01/17 05:25:48;;;;;;;10.80;5.60;;;;;;;-3.91;100.00;99439.92;1682601;85;21012;-68
2022/01/17 05:28:15;;;;;;;12.47;6.10;;;;;;;-3.92;100.00;99427.69;1673350;85;20980;-67
2022/01/17 05:30:42;;;;;;;11.47;6.23;;;;;;;-3.93;100.00;99423.33;1682389;85;21101;-68
2022/01/17 05:33:08;;;;;;;10.93;6.00;;;;;;;-3.93;100.00;99420.24;1683013;85;21500;-68
2022/01/17 05:35:35;;;;;;;15.93;7.60;;;;;;;-3.94;100.00;99413.25;1682991;85;21035;-68
2022/01/17 05:38:02;;;;;;;14.87;6.80;;;;;;;-3.94;100.00;99403.16;1683066;85;21024;-68
2022/01/17 05:40:31;;;;;;;15.87;7.40;;;;;;;-3.94;100.00;99407.97;1682426;85;21664;-68
2022/01/17 05:43:00;;;;;;;14.47;7.17;;;;;;;-3.94;100.00;99408.45;1682012;84;21050;-68
2022/01/17 05:45:27;;;;;;;13.67;6.80;;;;;;;-3.94;100.00;99407.97;1672055;85;21591;-67
2022/01/17 05:47:54;;;;;;;16.13;7.50;;;;;;;-3.97;100.00;99389.66;1672461;85;21086;-68
2022/01/17 05:50:21;;;;;;;17.07;7.90;;;;;;;-3.95;100.00;99398.33;1681994;85;21644;-67
2022/01/17 05:52:48;;;;;;;13.30;6.13;;;;;;;-3.94;100.00;99404.00;1673121;85;21011;-68
2022/01/17 05:55:15;;;;;;;14.73;7.17;;;;;;;-3.91;100.00;99396.34;1682889;85;21028;-68
2022/01/17 05:57:44;;;;;;;14.00;6.47;;;;;;;-3.92;100.00;99394.19;1683089;85;21027;-68
2022/01/17 06:00:14;;;;;;;14.73;6.97;;;;;;;-3.92;100.00;99391.55;1672979;85;21095;-68
2022/01/17 06:02:41;;;;;;;14.87;7.23;;;;;;;-3.89;100.00;99378.63;1669838;84;21004;-68
2022/01/17 06:05:09;;;;;;;13.87;7.60;;;;;;;-3.85;100.00;99374.84;1680564;85;20999;-67
2022/01/17 06:07:36;;;;;;;16.13;7.90;;;;;;;-3.83;100.00;99384.84;1680205;84;20999;-68
2022/01/17 06:10:04;;;;;;;17.40;7.57;;;;;;;-3.78;100.00;99384.09;1676923;85;21425;-68
2022/01/17 06:12:32;;;;;;;22.07;10.03;;;;;;;-3.73;100.00;99373.23;1681875;84;20991;-68
2022/01/17 06:14:58;;;;;;;21.77;9.03;;;;;;;-3.73;100.00;99370.12;1729669;83;21043;-69
2022/01/17 06:17:25;;;;;;;27.00;10.40;;;;;;;-3.72;100.00;99365.67;1668095;85;21512;-68
2022/01/17 06:19:53;;;;;;;26.77;11.43;;;;;;;-3.74;100.00;99359.16;1708739;82;21035;-69
2022/01/17 06:22:20;;;;;;;23.77;10.53;;;;;;;-3.73;100.00;99356.06;1757961;81;21472;-69
2022/01/17 06:24:46;;;;;;;29.33;11.57;;;;;;;-3.74;100.00;99343.78;1699369;83;21048;-69
2022/01/17 06:27:13;;;;;;;30.83;12.73;;;;;;;-3.76;100.00;99343.88;1745184;81;20991;-69
2022/01/17 06:29:40;;;;;;;25.30;10.90;;;;;;;-3.75;100.00;99338.11;1725424;82;20983;-68
2022/01/17 06:32:08;;;;;;;24.17;10.60;;;;;;;-3.74;100.00;99328.77;1737463;82;20996;-68
2022/01/17 06:34:35;;;;;;;21.47;9.60;;;;;;;-3.73;100.00;99323.88;1735375;82;20998;-67
2022/01/17 06:37:03;;;;;;;27.43;12.17;;;;;;;-3.70;100.00;99322.81;1718989;83;21026;-67
2022/01/17 06:39:31;;;;;;;27.13;12.07;;;;;;;-3.66;100.00;99311.12;1768591;81;21054;-68
2022/01/17 06:41:59;;;;;;;21.83;9.37;;;;;;;-3.60;100.00;99304.59;1700333;84;21068;-68
2022/01/17 06:44:26;;;;;;;20.57;9.83;;;;;;;-3.53;100.00;99299.28;1688865;84;21107;-68
2022/01/17 06:46:53;;;;;;;18.00;8.50;;;;;;;-3.48;100.00;99293.23;1687442;84;21085;-69
2022/01/17 06:49:20;;;;;;;19.07;8.90;;;;;;;-3.44;100.00;99270.92;1687010;84;21030;-68
2022/01/17 06:51:47;;;;;;;18.70;8.50;;;;;;;-3.40;100.00;99260.51;1688702;84;21101;-69
2022/01/17 06:54:14;;;;;;;19.13;9.03;;;;;;;-3.35;100.00;99241.23;1690889;84;21506;-68
2022/01/17 06:56:44;;;;;;;17.30;9.13;;;;;;;-3.30;100.00;99236.48;1687451;84;21045;-68
2022/01/17 06:59:14;;;;;;;19.90;8.83;;;;;;;-3.25;100.00;99222.48;1714701;83;21057;-68
2022/01/17 07:01:41;;;;;;;19.13;9.40;;;;;;;-3.19;100.00;99205.34;1709817;83;21034;-68
2022/01/17 07:04:08;;;;;;;16.90;8.23;;;;;;;-3.12;100.00;99211.07;1672434;85;21118;-70
2022/01/17 07:06:37;;;;;;;16.93;8.33;;;;;;;-3.04;100.00;99219.83;1632728;84;21032;-69
2022/01/17 07:09:05;;;;;;;18.07;8.60;;;;;;;-2.96;100.00;99212.19;1712623;84;21038;-68
2022/01/17 07:11:39;;;;;;;18.00;8.50;;;;;;;-2.83;100.00;99226.28;1708206;84;21019;-68
2022/01/17 07:14:09;;;;;;;18.70;8.80;;;;;;;-2.72;100.00;99257.30;1708311;83;21004;-68
2022/01/17 07:16:42;;;;;;;18.77;8.97;;;;;;;-2.60;100.00;99270.13;1673737;85;21078;-69
2022/01/17 07:19:09;;;;;;;20.00;8.90;;;;;;;-2.48;100.00;99270.61;1675758;85;21532;-69
2022/01/17 07:21:37;;;;;;;16.97;8.80;;;;;;;-2.36;100.00;99262.29;1675084;85;21167;-69
2022/01/17 07:24:07;;;;;;;18.30;8.50;;;;;;;-2.25;100.00;99217.34;1652844;86;21138;-67
2022/01/17 07:26:35;;;;;;;18.67;8.60;;;;;;;-2.13;100.00;99190.46;1675041;85;21122;-69
2022/01/17 07:29:05;;;;;;;20.97;10.53;;;;;;;-2.07;100.00;99163.55;1674976;85;21540;-69
2022/01/17 07:31:33;;;;;;;23.03;12.00;;;;;;;-2.00;100.00;99159.94;1654396;87;21072;-68
2022/01/17 07:34:00;;;;;;;35.97;15.83;;;;;;;-1.88;100.00;99186.86;1659017;86;21174;-70
2022/01/17 07:36:27;;;;;;;33.40;20.53;;;;;;;-1.77;100.00;99194.89;1714159;84;21029;-71
2022/01/17 07:39:01;;;;;;;29.47;14.83;;;;;;;-1.69;100.00;99199.61;1713820;84;21117;-70
2022/01/17 07:41:28;;;;;;;28.73;14.77;;;;;;;-1.60;100.00;99209.52;1687513;84;21109;-69
2022/01/17 07:43:55;;;;;;;33.63;16.77;;;;;;;-1.46;100.00;99215.13;1676961;85;21156;-70
2022/01/17 07:46:25;;;;;;;24.60;10.67;;;;;;;-1.27;100.00;99218.58;1682861;85;21156;-70
2022/01/17 07:48:58;;;;;;;21.67;10.33;;;;;;;-1.10;100.00;99211.13;1683288;85;21077;-71
2022/01/17 07:51:26;;;;;;;23.10;10.78;;;;;;;-0.97;100.00;99179.56;1683332;85;21622;-71
2022/01/17 07:53:54;;;;;;;23.00;11.00;;;;;;;-0.80;100.00;99139.78;1631304;88;21036;-70
2022/01/17 07:56:21;;;;;;;22.07;9.80;;;;;;;-0.65;100.00;99122.27;1633771;87;21582;-71
2022/01/17 07:58:48;;;;;;;21.90;10.00;;;;;;;-0.51;100.00;99115.37;1621600;88;21110;-72
2022/01/17 08:01:15;;;;;;;31.80;15.03;;;;;;;-0.51;100.00;99111.38;1632761;88;21040;-70
2022/01/17 08:03:42;;;;;;;35.50;17.47;;;;;;;-0.52;100.00;99132.25;1630174;88;21189;-70
2022/01/17 08:06:09;;;;;;;32.27;16.83;;;;;;;-0.42;100.00;99089.39;1607301;88;21605;-71
2022/01/17 08:08:36;;;;;;;31.40;16.37;;;;;;;-0.39;100.00;99074.53;1631365;86;21090;-71
2022/01/17 08:11:04;;;;;;;52.13;22.97;;;;;;;-0.38;100.00;99108.58;1619742;88;21192;-69
2022/01/17 08:13:31;;;;;;;36.90;18.93;;;;;;;-0.32;100.00;99124.50;1590447;89;21012;-71
2022/01/17 08:16:02;;;;;;;52.60;26.90;;;;;;;-0.28;100.00;99114.84;1566121;90;21134;-70
2022/01/17 08:18:29;;;;;;;23.43;10.33;;;;;;;-0.10;100.00;99090.39;1595284;89;21091;-73
2022/01/17 08:20:56;;;;;;;30.97;13.83;;;;;;;-0.02;100.00;99086.13;1624791;86;21014;-72
2022/01/17 08:23:23;;;;;;;32.00;14.30;;;;;;;-0.08;100.00;99073.34;1629103;86;20994;-71
2022/01/17 08:25:51;;;;;;;24.67;12.03;;;;;;;-0.14;100.00;99065.02;1598361;88;21509;-71
2022/01/17 08:28:18;;;;;;;30.97;14.23;;;;;;;-0.17;100.00;99055.50;1590869;89;21075;-71
2022/01/17 08:30:45;;;;;;;22.30;11.47;;;;;;;-0.25;100.00;99042.86;1576967;90;21042;-70
2022/01/17 08:33:12;;;;;;;21.67;10.50;;;;;;;-0.23;100.00;99042.70;1592660;88;21024;-70
2022/01/17 08:35:39;;;;;;;21.10;10.37;;;;;;;-0.18;100.00;99043.17;1596945;88;21583;-71
2022/01/17 08:38:06;;;;;;;23.43;10.80;;;;;;;-0.13;100.00;99031.68;1617015;87;21592;-70
2022/01/17 08:40:34;;;;;;;26.80;13.03;;;;;;;-0.04;100.00;99020.77;1602968;88;21629;-71
2022/01/17 08:43:01;;;;;;;24.57;11.20;;;;;;;-0.02;100.00;99010.39;1629180;88;21011;-70
2022/01/17 08:45:29;;;;;;;23.13;11.23;;;;;;;-0.02;100.00;99004.20;1603567;88;21069;-71
2022/01/17 08:47:56;;;;;;;25.27;10.80;;;;;;;-0.07;100.00;98993.98;1600604;88;21531;-71
2022/01/17 08:50:23;;;;;;;23.20;12.10;;;;;;;-0.11;100.00;98997.84;1610481;87;21623;-71
2022/01/17 08:52:50;;;;;;;27.60;11.43;;;;;;;-0.20;100.00;98980.86;1635681;87;21021;-69
2022/01/17 08:55:17;;;;;;;24.80;10.53;;;;;;;-0.26;100.00;98981.88;1630798;87;21093;-68
2022/01/17 08:57:45;;;;;;;22.83;10.20;;;;;;;-0.29;100.00;98979.47;1656529;85;21510;-67
2022/01/17 09:00:16;;;;;;;25.10;11.63;;;;;;;-0.28;100.00;98957.26;1710285;84;21506;-68
2022/01/17 09:02:43;;;;;;;26.33;11.80;;;;;;;-0.28;100.00;98980.67;1656602;86;21049;-70
2022/01/17 09:05:10;;;;;;;27.77;13.83;;;;;;;-0.28;100.00;98966.06;1655939;86;21019;-70
2022/01/17 09:07:37;;;;;;;29.17;15.20;;;;;;;-0.26;100.00;98987.19;1637453;86;21028;-72
2022/01/17 09:10:05;;;;;;;30.40;15.03;;;;;;;-0.23;100.00;98990.90;1647079;86;21063;-71
2022/01/17 09:12:32;;;;;;;28.87;14.43;;;;;;;-0.22;100.00;98969.52;1644078;87;21086;-73
2022/01/17 09:15:00;;;;;;;27.37;13.77;;;;;;;-0.21;100.00;98973.88;1700755;84;21031;-73
2022/01/17 09:17:27;;;;;;;37.90;17.97;;;;;;;-0.19;100.00;98972.42;1654829;85;21143;-71
2022/01/17 09:19:54;;;;;;;26.00;12.90;;;;;;;-0.17;100.00;98965.66;1701029;84;21038;-71
2022/01/17 09:22:22;;;;;;;25.20;11.90;;;;;;;-0.15;100.00;98959.23;1735939;83;21042;-71
2022/01/17 09:24:50;;;;;;;39.83;20.33;;;;;;;-0.13;100.00;98932.03;1736276;82;21035;-72
2022/01/17 09:27:17;;;;;;;33.27;15.70;;;;;;;-0.08;100.00;98923.69;1696699;84;21031;-71
2022/01/17 09:29:44;;;;;;;35.00;14.60;;;;;;;-0.03;100.00;98906.37;1736492;83;21488;-71
2022/01/17 09:32:11;;;;;;;28.93;12.97;;;;;;;0.03;100.00;98906.32;1702565;84;21049;-70
2022/01/17 09:34:40;;;;;;;25.77;13.53;;;;;;;0.13;100.00;98904.56;1736323;83;21082;-70
2022/01/17 09:37:08;;;;;;;31.73;15.60;;;;;;;0.26;100.00;98895.03;1718307;82;21521;-70
2022/01/17 09:39:37;;;;;;;33.17;18.77;;;;;;;0.35;100.00;98890.27;1681258;84;21627;-70
2022/01/17 09:42:06;;;;;;;30.23;16.53;;;;;;;0.44;100.00;98874.45;1690425;84;21092;-70
2022/01/17 09:44:36;;;;;;;28.33;15.67;;;;;;;0.45;100.00;98875.66;1735106;82;21121;-70
2022/01/17 09:47:07;;;;;;;23.57;12.00;;;;;;;0.46;100.00;98862.72;1735193;82;20987;-71
2022/01/17 09:52:14;;;;;;;21.00;9.63;;;;;;;0.53;100.00;98853.22;1700553;84;21513;-71
2022/01/17 09:54:36;;;;;;;20.10;9.50;;;;;;;0.54;100.00;98865.52;1665491;85;21064;-70
2022/01/17 09:57:06;;;;;;;21.10;8.60;;;;;;;0.59;100.00;98866.95;1617073;87;21035;-68
2022/01/17 09:59:38;;;;;;;20.03;9.53;;;;;;;0.59;100.00;98870.45;1623719;87;21059;-70
2022/01/17 10:02:05;;;;;;;17.80;8.07;;;;;;;0.62;100.00;98871.98;1622110;88;21054;-70
2022/01/17 10:04:33;;;;;;;20.00;9.10;;;;;;;0.65;100.00;98850.44;1635666;87;21041;-71
2022/01/17 10:07:01;;;;;;;18.30;8.40;;;;;;;0.67;100.00;98856.45;1611163;88;21519;-70
2022/01/17 10:09:28;;;;;;;20.27;9.30;;;;;;;0.69;100.00;98854.02;1670350;85;21085;-71
2022/01/17 10:12:12;;;;;;;20.90;8.30;;;;;;;0.68;100.00;98852.33;1681767;85;21104;-71
2022/01/17 10:14:58;;;;;;;20.10;8.57;;;;;;;0.71;100.00;98861.88;1682599;83;21510;-70
2022/01/17 10:17:16;;;;;;;17.57;8.33;;;;;;;0.73;100.00;98850.09;1607395;87;21014;-70
2022/01/17 10:19:44;;;;;;;18.60;9.40;;;;;;;0.78;100.00;98851.50;1641130;87;21046;-70
2022/01/17 10:22:19;;;;;;;22.13;9.80;;;;;;;0.79;100.00;98848.70;1639841;87;21041;-71
2022/01/17 10:25:04;;;;;;;22.73;10.83;;;;;;;0.84;100.00;98833.66;1624260;87;21600;-72
2022/01/17 10:35:31;;;;;;;22.00;10.03;;;;;;;0.92;100.00;98804.52;1639227;87;21042;-70
2022/01/17 10:38:08;;;;;;;20.80;9.47;;;;;;;0.93;100.00;98803.55;1615616;88;21047;-70
2022/01/17 10:40:45;;;;;;;21.90;9.53;;;;;;;0.94;100.00;98792.77;1623218;87;21107;-71
2022/01/17 10:43:28;;;;;;;19.73;9.33;;;;;;;0.97;100.00;98781.48;1622516;87;21117;-71
2022/01/17 10:45:57;;;;;;;20.23;9.43;;;;;;;0.98;100.00;98782.67;1591950;88;21624;-72
2022/01/17 10:48:37;;;;;;;18.43;8.87;;;;;;;1.00;100.00;98775.88;1602053;89;21265;-72
2022/01/17 10:51:06;;;;;;;17.13;7.33;;;;;;;1.01;100.00;98768.23;1544641;92;21043;-71
2022/01/17 10:53:33;;;;;;;20.30;7.70;;;;;;;1.04;100.00;98764.80;1550449;92;21122;-73
2022/01/17 10:56:05;;;;;;;20.97;8.97;;;;;;;1.05;100.00;98733.71;1538503;93;21065;-69
2022/01/17 10:58:31;;;;;;;19.47;8.60;;;;;;;1.09;100.00;98755.06;1544990;93;21145;-71
2022/01/17 11:01:01;;;;;;;19.57;8.87;;;;;;;1.13;100.00;98745.80;1542622;91;21047;-71
2022/01/17 11:03:31;;;;;;;20.90;9.17;;;;;;;1.14;100.00;98740.84;1502097;93;21098;-70
2022/01/17 11:06:01;;;;;;;19.83;8.33;;;;;;;1.13;100.00;98724.03;1510037;93;21079;-71
2022/01/17 11:08:30;;;;;;;19.17;8.43;;;;;;;1.15;100.00;98718.53;1540005;92;21693;-72
2022/01/17 11:10:59;;;;;;;16.77;7.83;;;;;;;1.12;100.00;98710.36;1509434;94;21073;-70
2022/01/17 11:13:30;;;;;;;20.70;9.47;;;;;;;1.12;100.00;98717.52;1502993;94;21087;-69
2022/01/17 11:16:00;;;;;;;21.70;9.80;;;;;;;1.13;100.00;98715.18;1511518;93;21057;-70
2022/01/17 11:18:29;;;;;;;22.23;10.07;;;;;;;1.13;100.00;98706.72;1488981;95;21107;-70
2022/01/17 11:21:10;;;;;;;21.23;9.23;;;;;;;1.14;100.00;98708.88;1492841;95;21097;-68
2022/01/17 11:23:33;;;;;;;20.03;9.63;;;;;;;1.14;100.00;98712.87;1491799;95;21089;-69
2022/01/17 11:26:00;;;;;;;18.57;9.20;;;;;;;1.14;100.00;98695.07;1497862;95;21081;-72
2022/01/17 11:28:31;;;;;;;19.90;9.30;;;;;;;1.16;100.00;98690.11;1477326;95;21539;-71
2022/01/17 11:31:00;;;;;;;20.27;8.60;;;;;;;1.16;100.00;98671.47;1492701;94;21179;-71
2022/01/17 11:33:27;;;;;;;17.23;8.73;;;;;;;1.14;100.00;98653.80;1505823;94;21590;-70
2022/01/17 11:35:56;;;;;;;17.90;7.30;;;;;;;1.17;100.00;98654.02;1510604;95;21122;-70
2022/01/17 11:38:42;;;;;;;19.17;8.60;;;;;;;1.20;100.00;98652.87;1497451;94;21090;-73
2022/01/17 11:41:30;;;;;;;16.30;7.00;;;;;;;1.22;100.00;98644.25;1515959;94;21092;-72
2022/01/17 11:44:00;;;;;;;12.40;6.00;;;;;;;1.27;100.00;98636.66;1482251;97;21109;-71
2022/01/17 11:46:33;;;;;;;14.10;6.57;;;;;;;1.33;100.00;98638.76;1453897;95;21133;-71
2022/01/17 11:49:07;;;;;;;16.80;7.37;;;;;;;1.37;100.00;98632.14;1510550;94;21563;-70